createdAt,value
2023-12-09T00:00:26.864Z,24.42
2023-12-09T00:03:15.813Z,19.90
2023-12-09T00:05:43.372Z,20.55
2023-12-09T00:08:10.976Z,20.30
2023-12-09T00:10:38.795Z,24.02
2023-12-09T00:13:06.223Z,22.73
2023-12-09T00:15:33.535Z,25.23
2023-12-09T00:18:01.184Z,21.65
2023-12-09T00:20:30.072Z,25.27
2023-12-09T00:22:57.779Z,18.42
2023-12-09T00:25:25.410Z,20.33
2023-12-09T00:27:53.142Z,19.27
2023-12-09T00:30:20.360Z,21.35
2023-12-09T00:32:48.384Z,24.42
2023-12-09T00:35:15.738Z,23.55
2023-12-09T00:37:44.709Z,24.08
2023-12-09T00:40:13.164Z,22.80
2023-12-09T00:42:40.836Z,24.48
2023-12-09T00:45:08.564Z,28.13
2023-12-09T00:47:36.013Z,26.98
2023-12-09T00:50:03.420Z,20.60
2023-12-09T00:52:30.736Z,22.50
2023-12-09T00:54:59.439Z,20.77
2023-12-09T00:59:54.127Z,22.50
2023-12-09T01:02:21.572Z,22.02
2023-12-09T01:04:48.651Z,23.90
2023-12-09T01:07:16.057Z,27.35
2023-12-09T01:09:43.301Z,27.75
2023-12-09T01:12:12.092Z,28.83
2023-12-09T01:14:39.279Z,27.55
2023-12-09T01:17:07.443Z,28.63
2023-12-09T01:19:34.704Z,27.23
2023-12-09T01:22:02.204Z,32.10
2023-12-09T01:24:29.503Z,28.33
2023-12-09T01:26:56.958Z,23.95
2023-12-09T01:29:25.483Z,27.23
2023-12-09T01:31:52.870Z,24.70
2023-12-09T01:34:20.214Z,26.13
2023-12-09T01:36:47.811Z,23.73
2023-12-09T01:39:15.083Z,24.48
2023-12-09T01:41:42.605Z,26.00
2023-12-09T01:44:09.758Z,28.15
2023-12-09T01:46:39.743Z,24.27
2023-12-09T01:49:07.496Z,23.13
2023-12-09T01:51:36.499Z,24.30
2023-12-09T01:54:03.909Z,28.02
2023-12-09T01:56:31.699Z,25.30
2023-12-09T01:58:58.919Z,23.65
2023-12-09T02:01:26.867Z,21.58
2023-12-09T02:03:55.478Z,20.15
2023-12-09T02:06:23.087Z,19.92
2023-12-09T02:08:50.617Z,21.13
2023-12-09T02:11:24.332Z,23.15
2023-12-09T02:13:58.319Z,24.42
2023-12-09T02:16:31.355Z,24.52
2023-12-09T02:19:01.911Z,23.27
2023-12-09T02:21:29.536Z,18.48
2023-12-09T02:23:58.284Z,23.25
2023-12-09T02:29:02.043Z,20.55
2023-12-09T02:31:33.007Z,22.55
2023-12-09T02:34:04.585Z,23.52
2023-12-09T02:36:34.260Z,25.33
2023-12-09T02:39:05.021Z,17.98
2023-12-09T02:41:33.944Z,19.15
2023-12-09T02:44:01.216Z,22.63
2023-12-09T02:46:28.662Z,18.48
2023-12-09T02:48:55.880Z,19.58
2023-12-09T02:51:23.337Z,22.90
2023-12-09T02:53:50.847Z,16.48
2023-12-09T02:56:19.725Z,18.60
2023-12-09T02:58:46.857Z,20.02
2023-12-09T03:01:14.192Z,19.05
2023-12-09T03:03:41.421Z,20.17
2023-12-09T03:06:08.968Z,22.40
2023-12-09T03:08:36.065Z,20.85
2023-12-09T03:11:03.632Z,19.42
2023-12-09T03:13:32.337Z,22.58
2023-12-09T03:16:00.853Z,18.00
2023-12-09T03:18:28.110Z,26.73
2023-12-09T03:20:55.522Z,22.27
2023-12-09T03:23:22.679Z,24.58
2023-12-09T03:25:50.067Z,22.45
2023-12-09T03:28:17.082Z,19.27
2023-12-09T03:30:45.930Z,19.90
2023-12-09T03:33:13.511Z,18.52
2023-12-09T03:35:41.006Z,21.83
2023-12-09T03:38:08.073Z,21.13
2023-12-09T03:40:35.449Z,21.55
2023-12-09T03:43:02.582Z,20.38
2023-12-09T03:45:29.948Z,23.50
2023-12-09T03:47:58.781Z,19.83
2023-12-09T03:52:53.317Z,21.25
2023-12-09T03:55:21.074Z,19.35
2023-12-09T03:57:48.325Z,17.58
2023-12-09T04:00:16.564Z,16.05
2023-12-09T04:02:43.765Z,15.55
2023-12-09T04:05:12.671Z,17.70
2023-12-09T04:07:39.773Z,19.25
2023-12-09T04:10:10.230Z,16.55
2023-12-09T04:12:37.599Z,14.82
2023-12-09T04:15:06.076Z,16.02
2023-12-09T04:17:33.242Z,19.40
2023-12-09T04:20:00.747Z,18.02
2023-12-09T04:22:29.446Z,19.27
2023-12-09T04:24:57.006Z,16.33
2023-12-09T04:27:24.178Z,17.50
2023-12-09T04:29:57.830Z,17.35
2023-12-09T04:32:25.215Z,15.70
2023-12-09T04:34:52.729Z,21.25
2023-12-09T04:37:19.834Z,16.23
2023-12-09T04:39:48.564Z,21.15
2023-12-09T04:42:15.707Z,18.58
2023-12-09T04:44:43.094Z,16.00
2023-12-09T04:47:10.266Z,21.83
2023-12-09T04:49:37.870Z,20.77
2023-12-09T04:52:05.954Z,22.00
2023-12-09T04:54:33.459Z,19.00
2023-12-09T04:57:02.138Z,18.88
2023-12-09T04:59:29.707Z,18.42
2023-12-09T05:01:56.882Z,19.10
2023-12-09T05:04:24.617Z,20.23
2023-12-09T05:06:51.932Z,20.02
2023-12-09T05:09:19.471Z,19.08
2023-12-09T05:11:46.624Z,19.65
2023-12-09T05:14:15.469Z,17.50
2023-12-09T05:16:42.542Z,20.92
2023-12-09T05:19:10.026Z,28.35
2023-12-09T05:21:37.329Z,24.27
2023-12-09T05:24:05.755Z,22.63
2023-12-09T05:26:33.229Z,23.53
2023-12-09T05:29:00.660Z,22.60
2023-12-09T05:31:29.297Z,18.65
2023-12-09T05:33:56.780Z,23.70
2023-12-09T05:36:23.943Z,18.70
2023-12-09T05:38:51.344Z,21.92
2023-12-09T05:41:18.458Z,18.02
2023-12-09T05:43:45.863Z,26.55
2023-12-09T05:46:19.777Z,23.85
2023-12-09T05:48:49.218Z,21.60
2023-12-09T05:51:16.456Z,25.38
2023-12-09T05:53:43.897Z,19.67
2023-12-09T05:56:13.059Z,18.25
2023-12-09T05:58:41.064Z,18.70
2023-12-09T06:01:09.315Z,21.73
2023-12-09T06:03:37.171Z,18.95
2023-12-09T06:06:07.378Z,20.40
2023-12-09T06:08:34.930Z,20.50
2023-12-09T06:11:02.075Z,25.92
2023-12-09T06:13:29.584Z,31.95
2023-12-09T06:15:56.657Z,33.85
2023-12-09T06:18:24.288Z,23.45
2023-12-09T06:20:51.381Z,26.85
2023-12-09T06:23:20.309Z,22.25
2023-12-09T06:25:47.633Z,23.15
2023-12-09T06:28:15.047Z,26.00
2023-12-09T06:30:42.078Z,23.95
2023-12-09T06:33:09.792Z,21.65
2023-12-09T06:35:36.859Z,32.28
2023-12-09T06:38:04.139Z,25.83
2023-12-09T06:40:32.493Z,28.83
2023-12-09T06:42:59.918Z,26.92
2023-12-09T06:45:27.205Z,28.88
2023-12-09T06:47:56.420Z,25.55
2023-12-09T06:50:23.626Z,27.67
2023-12-09T06:52:51.042Z,30.38
2023-12-09T06:55:18.084Z,32.80
2023-12-09T06:57:46.808Z,48.60
2023-12-09T07:00:15.868Z,51.25
2023-12-09T07:02:52.991Z,46.83
2023-12-09T07:05:33.653Z,38.60
2023-12-09T07:08:01.372Z,42.88
2023-12-09T07:10:28.442Z,43.08
2023-12-09T07:12:57.393Z,41.03
2023-12-09T07:15:24.647Z,41.10
2023-12-09T07:17:52.690Z,39.13
2023-12-09T07:20:35.103Z,40.45
2023-12-09T07:23:07.909Z,48.55
2023-12-09T07:25:37.952Z,38.95
2023-12-09T07:28:11.923Z,38.40
2023-12-09T07:30:39.463Z,36.88
2023-12-09T07:33:07.037Z,34.47
2023-12-09T07:35:34.689Z,29.17
2023-12-09T07:38:02.155Z,31.25
2023-12-09T07:40:29.358Z,36.20
2023-12-09T07:42:56.689Z,29.23
2023-12-09T07:45:25.285Z,26.52
2023-12-09T07:47:52.759Z,25.92
2023-12-09T07:50:20.342Z,28.50
2023-12-09T07:52:47.944Z,22.90
2023-12-09T07:55:15.338Z,24.40
2023-12-09T07:57:42.781Z,27.80
2023-12-09T08:00:11.468Z,25.35
2023-12-09T08:02:43.500Z,31.17
2023-12-09T08:05:10.758Z,28.75
2023-12-09T08:07:38.326Z,29.75
2023-12-09T08:10:07.544Z,29.80
2023-12-09T08:12:36.560Z,29.52
2023-12-09T08:15:06.369Z,29.30
2023-12-09T08:17:33.939Z,24.63
2023-12-09T08:20:07.866Z,24.17
2023-12-09T08:22:43.448Z,32.55
2023-12-09T08:25:11.297Z,23.67
2023-12-09T08:27:43.231Z,29.33
2023-12-09T08:30:12.146Z,28.15
2023-12-09T08:32:40.822Z,32.88
2023-12-09T08:35:10.791Z,27.73
2023-12-09T08:37:39.345Z,25.52
2023-12-09T08:40:12.527Z,21.73
2023-12-09T08:42:41.073Z,26.92
2023-12-09T08:45:10.567Z,23.50
2023-12-09T08:47:41.057Z,23.63
2023-12-09T08:50:21.958Z,31.08
2023-12-09T08:52:52.027Z,25.77
2023-12-09T08:55:19.567Z,25.48
2023-12-09T08:57:47.374Z,27.85
2023-12-09T09:00:20.283Z,30.35
2023-12-09T09:02:50.473Z,25.27
2023-12-09T09:05:19.292Z,27.88
2023-12-09T09:10:14.613Z,28.10
2023-12-09T09:12:44.763Z,26.27
2023-12-09T09:15:17.334Z,28.98
2023-12-09T09:17:44.938Z,23.08
2023-12-09T09:20:12.294Z,24.25
2023-12-09T09:22:45.416Z,26.35
2023-12-09T09:25:14.674Z,25.55
2023-12-09T09:27:45.384Z,24.60
2023-12-09T09:30:14.562Z,30.75
2023-12-09T09:32:43.814Z,25.55
2023-12-09T09:35:11.024Z,31.60
2023-12-09T09:37:38.570Z,21.67
2023-12-09T09:40:14.682Z,20.27
2023-12-09T09:42:51.134Z,18.92
2023-12-09T09:45:27.215Z,22.45
2023-12-09T09:48:07.369Z,19.27
2023-12-09T09:50:42.090Z,18.27
2023-12-09T09:53:12.202Z,18.90
2023-12-09T09:55:41.775Z,27.25
2023-12-09T09:58:10.095Z,20.70
2023-12-09T10:00:37.647Z,19.85
2023-12-09T10:03:05.314Z,18.75
2023-12-09T10:05:32.829Z,15.65
2023-12-09T10:08:01.789Z,17.38
2023-12-09T10:10:31.087Z,22.98
2023-12-09T10:12:59.896Z,16.02
2023-12-09T10:15:26.977Z,19.38
2023-12-09T10:17:59.105Z,19.02
2023-12-09T10:20:26.673Z,17.50
2023-12-09T10:22:54.067Z,18.67
2023-12-09T10:25:22.483Z,22.40
2023-12-09T10:27:50.193Z,13.25
2023-12-09T10:30:22.088Z,14.18
2023-12-09T10:32:49.710Z,14.38
2023-12-09T10:35:17.829Z,13.40
2023-12-09T10:37:45.331Z,14.23
2023-12-09T10:40:14.497Z,12.77
2023-12-09T10:42:42.363Z,15.32
2023-12-09T10:45:09.953Z,10.52
2023-12-09T10:47:39.000Z,16.98
2023-12-09T10:50:07.227Z,14.90
2023-12-09T10:52:37.088Z,11.48
2023-12-09T10:55:06.657Z,12.30
2023-12-09T10:57:34.876Z,11.70
2023-12-09T11:00:09.525Z,13.05
2023-12-09T11:02:39.566Z,10.60
2023-12-09T11:05:08.584Z,13.93
2023-12-09T11:07:37.071Z,9.63
2023-12-09T11:10:07.619Z,11.17
2023-12-09T11:12:36.812Z,12.75
2023-12-09T11:17:39.062Z,11.30
2023-12-09T11:20:11.234Z,12.70
2023-12-09T11:22:39.429Z,17.10
2023-12-09T11:25:08.784Z,11.85
2023-12-09T11:27:37.265Z,16.63
2023-12-09T11:30:06.236Z,13.20
2023-12-09T11:32:34.131Z,11.73
2023-12-09T11:35:03.158Z,14.23
2023-12-09T11:37:32.270Z,12.90
2023-12-09T11:40:01.422Z,20.35
2023-12-09T11:42:29.920Z,14.48
2023-12-09T11:44:57.453Z,17.55
2023-12-09T11:47:25.349Z,14.77
2023-12-09T11:49:53.296Z,13.25
2023-12-09T11:52:21.961Z,15.93
2023-12-09T11:54:59.882Z,14.40
2023-12-09T11:57:28.842Z,28.08
2023-12-09T11:59:56.537Z,36.35
2023-12-09T12:02:24.049Z,22.77
2023-12-09T12:04:51.231Z,26.42
2023-12-09T12:07:18.653Z,28.88
2023-12-09T12:09:47.553Z,27.27
2023-12-09T12:14:41.961Z,18.58
2023-12-09T12:17:10.484Z,19.02
2023-12-09T12:19:37.923Z,21.48
2023-12-09T12:22:05.816Z,21.33
2023-12-09T12:24:41.420Z,25.98
2023-12-09T12:27:10.537Z,18.10
2023-12-09T12:29:38.182Z,22.25
2023-12-09T12:32:07.081Z,21.05
2023-12-09T12:34:34.682Z,24.20
2023-12-09T12:37:02.933Z,20.85
2023-12-09T12:39:30.066Z,22.55
2023-12-09T12:41:57.604Z,21.17
2023-12-09T12:44:26.806Z,21.88
2023-12-09T12:46:54.385Z,28.40
2023-12-09T12:49:21.514Z,22.20
2023-12-09T12:51:51.022Z,22.48
2023-12-09T12:54:18.887Z,21.77
2023-12-09T12:56:46.438Z,22.20
2023-12-09T12:59:13.540Z,20.65
2023-12-09T13:01:42.527Z,36.17
2023-12-09T13:04:10.807Z,30.45
2023-12-09T13:06:39.676Z,23.33
2023-12-09T13:09:09.786Z,23.23
2023-12-09T13:11:37.266Z,21.67
2023-12-09T13:14:05.237Z,20.92
2023-12-09T13:16:33.000Z,19.95
2023-12-09T13:19:01.894Z,22.92
2023-12-09T13:21:29.481Z,22.30
2023-12-09T13:23:56.735Z,23.17
2023-12-09T13:26:24.344Z,26.00
2023-12-09T13:28:51.565Z,23.42
2023-12-09T13:31:19.127Z,24.88
2023-12-09T13:33:46.396Z,21.90
2023-12-09T13:36:16.360Z,22.38
2023-12-09T13:38:43.855Z,22.98
2023-12-09T13:41:11.335Z,21.23
2023-12-09T13:43:38.574Z,24.10
2023-12-09T13:46:06.626Z,24.73
2023-12-09T13:48:36.041Z,31.00
2023-12-09T13:51:06.204Z,25.83
2023-12-09T13:53:35.135Z,24.30
2023-12-09T13:58:29.885Z,23.65
2023-12-09T14:01:01.959Z,28.88
2023-12-09T14:03:29.714Z,28.13
2023-12-09T14:06:00.647Z,28.63
2023-12-09T14:08:28.562Z,28.02
2023-12-09T14:10:58.466Z,24.83
2023-12-09T14:13:26.022Z,23.05
2023-12-09T14:15:54.253Z,22.48
2023-12-09T14:18:21.609Z,26.15
2023-12-09T14:20:49.247Z,23.33
2023-12-09T14:23:16.325Z,23.23
2023-12-09T14:25:43.962Z,23.13
2023-12-09T14:28:12.781Z,29.65
2023-12-09T14:30:40.274Z,23.80
2023-12-09T14:33:07.819Z,21.35
2023-12-09T14:35:35.469Z,20.45
2023-12-09T14:38:02.686Z,22.15
2023-12-09T14:40:30.872Z,21.58
2023-12-09T14:42:58.031Z,19.73
2023-12-09T14:45:26.853Z,23.42
2023-12-09T14:48:01.195Z,35.58
2023-12-09T14:50:32.726Z,37.83
2023-12-09T14:53:00.307Z,27.83
2023-12-09T14:55:27.759Z,31.00
2023-12-09T14:57:55.270Z,30.45
2023-12-09T15:00:23.537Z,33.33
2023-12-09T15:02:52.187Z,26.13
2023-12-09T15:05:19.835Z,31.02
2023-12-09T15:07:47.264Z,26.80
2023-12-09T15:10:15.167Z,25.70
2023-12-09T15:12:43.532Z,25.25
2023-12-09T15:15:12.527Z,26.75
2023-12-09T15:17:39.946Z,27.15
2023-12-09T15:20:10.693Z,32.63
2023-12-09T15:22:38.451Z,33.42
2023-12-09T15:25:07.137Z,29.40
2023-12-09T15:27:34.360Z,31.15
2023-12-09T15:30:05.355Z,28.30
2023-12-09T15:32:33.756Z,33.28
2023-12-09T15:35:03.633Z,29.48
2023-12-09T15:37:33.268Z,25.20
2023-12-09T15:40:00.931Z,31.38
2023-12-09T15:42:28.431Z,28.30
2023-12-09T15:44:57.790Z,29.20
2023-12-09T15:47:25.406Z,27.58
2023-12-09T15:49:53.749Z,24.98
2023-12-09T15:52:20.887Z,26.63
2023-12-09T15:54:50.256Z,30.85
2023-12-09T15:57:17.796Z,31.58
2023-12-09T15:59:47.524Z,29.30
2023-12-09T16:02:15.087Z,31.05
2023-12-09T16:04:42.748Z,31.33
2023-12-09T16:07:09.938Z,39.38
2023-12-09T16:09:41.173Z,34.55
2023-12-09T16:12:13.672Z,33.25
2023-12-09T16:14:41.113Z,29.25
2023-12-09T16:17:09.042Z,31.38
2023-12-09T16:19:36.742Z,39.57
2023-12-09T16:22:04.812Z,35.63
2023-12-09T16:24:32.541Z,35.67
2023-12-09T16:26:59.727Z,44.17
2023-12-09T16:29:29.614Z,36.40
2023-12-09T16:34:24.344Z,25.42
2023-12-09T16:36:51.718Z,28.13
2023-12-09T16:39:19.030Z,33.65
2023-12-09T16:41:46.258Z,30.25
2023-12-09T16:44:14.056Z,27.42
2023-12-09T16:46:42.607Z,32.58
2023-12-09T16:49:10.386Z,28.50
2023-12-09T16:51:37.485Z,36.97
2023-12-09T16:54:05.093Z,25.85
2023-12-09T16:56:32.416Z,25.13
2023-12-09T16:59:00.285Z,29.52
2023-12-09T17:01:27.493Z,31.35
2023-12-09T17:03:56.585Z,27.58
2023-12-09T17:06:23.795Z,32.20
2023-12-09T17:08:51.247Z,32.45
2023-12-09T17:11:18.501Z,39.20
2023-12-09T17:13:46.237Z,48.90
2023-12-09T17:16:13.884Z,39.03
2023-12-09T17:18:41.404Z,28.27
2023-12-09T17:21:10.161Z,37.63
2023-12-09T17:26:08.890Z,33.15
2023-12-09T17:28:36.424Z,30.40
2023-12-09T17:31:04.333Z,36.85
2023-12-09T17:33:31.918Z,49.20
2023-12-09T17:35:59.293Z,37.15
2023-12-09T17:38:29.576Z,33.85
2023-12-09T17:40:56.787Z,31.92
2023-12-09T17:43:24.302Z,40.53
2023-12-09T17:45:54.427Z,46.08
2023-12-09T17:48:24.564Z,31.90
2023-12-09T17:50:51.830Z,32.03
2023-12-09T17:53:21.327Z,32.65
2023-12-09T17:55:50.122Z,33.20
2023-12-09T17:58:17.510Z,25.98
2023-12-09T18:00:44.903Z,29.23
2023-12-09T18:03:12.999Z,33.53
2023-12-09T18:05:40.373Z,27.08
2023-12-09T18:08:07.896Z,29.10
2023-12-09T18:10:35.259Z,35.42
2023-12-09T18:13:04.091Z,36.05
2023-12-09T18:15:31.945Z,30.52
2023-12-09T18:18:00.391Z,31.15
2023-12-09T18:20:27.570Z,33.92
2023-12-09T18:22:57.945Z,26.63
2023-12-09T18:25:26.955Z,29.35
2023-12-09T18:27:54.535Z,35.97
2023-12-09T18:30:23.880Z,25.98
2023-12-09T18:32:51.420Z,36.13
2023-12-09T18:35:19.010Z,36.10
2023-12-09T18:37:46.538Z,38.92
2023-12-09T18:40:14.126Z,40.13
2023-12-09T18:42:41.600Z,31.35
2023-12-09T18:45:09.541Z,39.15
2023-12-09T18:47:40.282Z,38.75
2023-12-09T18:50:07.981Z,39.50
2023-12-09T18:52:35.318Z,36.15
2023-12-09T18:55:02.513Z,37.67
2023-12-09T18:57:31.074Z,30.20
2023-12-09T18:59:58.265Z,34.50
2023-12-09T19:02:25.766Z,37.25
2023-12-09T19:04:54.939Z,35.72
2023-12-09T19:07:22.529Z,42.03
2023-12-09T19:09:52.741Z,35.15
2023-12-09T19:12:20.251Z,34.33
2023-12-09T19:14:47.696Z,38.60
2023-12-09T19:17:15.762Z,32.30
2023-12-09T19:19:43.201Z,36.47
2023-12-09T19:22:12.207Z,43.80
2023-12-09T19:24:40.996Z,49.20
2023-12-09T19:27:11.520Z,44.58
2023-12-09T19:29:40.626Z,62.17
2023-12-09T19:32:08.652Z,44.65
2023-12-09T19:34:36.810Z,46.15
2023-12-09T19:37:05.288Z,33.17
2023-12-09T19:39:34.328Z,58.17
2023-12-09T19:42:01.829Z,63.90
2023-12-09T19:44:29.493Z,50.35
2023-12-09T19:46:57.657Z,58.22
2023-12-09T19:49:25.757Z,49.35
2023-12-09T19:51:53.318Z,39.15
2023-12-09T19:54:20.635Z,44.47
2023-12-09T19:56:50.577Z,32.40
2023-12-09T19:59:17.683Z,31.92
2023-12-09T20:01:45.664Z,32.78
2023-12-09T20:04:12.885Z,31.40
2023-12-09T20:06:41.461Z,32.95
2023-12-09T20:09:08.871Z,34.10
2023-12-09T20:11:36.313Z,35.40
2023-12-09T20:14:05.001Z,31.23
2023-12-09T20:16:32.676Z,33.90
2023-12-09T20:19:00.082Z,33.80
2023-12-09T20:21:27.674Z,33.88
2023-12-09T20:23:54.749Z,36.00
2023-12-09T20:26:22.219Z,38.78
2023-12-09T20:28:49.542Z,36.65
2023-12-09T20:31:18.348Z,41.65
2023-12-09T20:33:45.994Z,39.05
2023-12-09T20:36:13.604Z,40.17
2023-12-09T20:38:40.874Z,35.90
2023-12-09T20:41:10.653Z,35.78
2023-12-09T20:43:37.991Z,29.63
2023-12-09T20:46:06.189Z,31.75
2023-12-09T20:48:34.754Z,35.28
2023-12-09T20:51:02.267Z,34.95
2023-12-09T20:53:30.540Z,35.78
2023-12-09T20:55:58.059Z,35.92
2023-12-09T20:58:25.412Z,37.10
2023-12-09T21:00:52.874Z,33.95
2023-12-09T21:03:20.657Z,34.58
2023-12-09T21:05:53.835Z,35.42
2023-12-09T21:08:21.671Z,33.85
2023-12-09T21:10:49.502Z,36.95
2023-12-09T21:13:21.691Z,32.30
2023-12-09T21:15:52.430Z,34.83
2023-12-09T21:18:21.377Z,37.97
2023-12-09T21:25:49.311Z,43.70
2023-12-09T21:28:16.443Z,52.65
2023-12-09T21:30:44.012Z,59.45
2023-12-09T21:33:11.564Z,51.05
2023-12-09T21:35:39.134Z,49.20
2023-12-09T21:38:07.750Z,49.40
2023-12-09T21:40:35.454Z,49.00
2023-12-09T21:43:04.390Z,46.05
2023-12-09T21:45:32.118Z,44.35
2023-12-09T21:47:59.499Z,44.58
2023-12-09T21:50:27.008Z,38.97
2023-12-09T21:52:54.051Z,34.20
2023-12-09T21:55:25.179Z,39.05
2023-12-09T21:57:52.528Z,41.03
2023-12-09T22:00:20.353Z,44.47
2023-12-09T22:02:48.269Z,42.22
2023-12-09T22:05:16.056Z,39.38
2023-12-09T22:07:43.172Z,40.90
2023-12-09T22:10:10.838Z,35.38
2023-12-09T22:12:41.406Z,38.78
2023-12-09T22:15:09.760Z,39.60
2023-12-09T22:17:38.072Z,41.70
2023-12-09T22:20:07.404Z,43.03
2023-12-09T22:22:41.183Z,37.88
2023-12-09T22:25:13.227Z,35.60
2023-12-09T22:27:41.905Z,37.97
2023-12-09T22:30:10.434Z,30.40
2023-12-09T22:32:38.120Z,33.88
2023-12-09T22:35:07.006Z,32.63
2023-12-09T22:37:34.647Z,34.70
2023-12-09T22:40:02.118Z,33.53
2023-12-09T22:42:29.797Z,33.85
2023-12-09T22:44:58.798Z,29.27
2023-12-09T22:47:26.089Z,35.92
2023-12-09T22:49:54.083Z,31.20
2023-12-09T22:52:21.348Z,28.38
2023-12-09T22:54:49.056Z,30.17
2023-12-09T22:57:18.340Z,31.35
2023-12-09T22:59:46.388Z,31.55
2023-12-09T23:02:15.307Z,30.90
2023-12-09T23:04:42.980Z,31.52
2023-12-09T23:07:10.367Z,27.42
2023-12-09T23:09:38.314Z,26.23
2023-12-09T23:12:06.841Z,23.33
2023-12-09T23:14:34.299Z,28.77
2023-12-09T23:17:01.448Z,36.90
2023-12-09T23:19:31.550Z,26.15
2023-12-09T23:21:58.610Z,23.85
2023-12-09T23:24:26.532Z,28.50
2023-12-09T23:26:54.923Z,24.77
2023-12-09T23:29:22.252Z,29.17
2023-12-09T23:31:49.578Z,28.40
2023-12-09T23:34:17.669Z,27.30
2023-12-09T23:36:46.913Z,28.03
2023-12-09T23:39:14.281Z,30.30
2023-12-09T23:41:42.824Z,28.52
2023-12-09T23:44:10.202Z,25.42
2023-12-09T23:46:37.341Z,31.90
2023-12-09T23:49:06.375Z,27.73
2023-12-09T23:51:34.386Z,24.95
2023-12-09T23:54:04.853Z,26.23
2023-12-09T23:56:33.153Z,28.75
2023-12-09T23:59:04.008Z,23.92
